Time;durP1;ratioP1;P1;durP2;ratioP2;P2;SDS_P1;SDS_P2;PMS_P1;PMS_P2;Temp;Humidity;BMP_temperature;BMP_pressure;BME280_temperature;BME280_humidity;BME280_pressure;Samples;Min_cycle;Max_cycle;Signal;HPM_P1;HPM_P2
2021/07/18 00:00:37;;;;;;;7.30;2.55;;;;;;;23.44;63.41;100716.63;4993735;28;20069;-62
2021/07/18 00:03:04;;;;;;;3.55;2.53;;;;;;;23.43;63.59;100720.31;4993871;28;20050;-62
2021/07/18 00:05:31;;;;;;;3.42;2.25;;;;;;;23.43;63.43;100714.94;4993777;28;20100;-62
2021/07/18 00:08:03;;;;;;;5.68;2.80;;;;;;;23.42;63.38;100715.94;4993665;28;20097;-62
2021/07/18 00:10:29;;;;;;;5.13;2.50;;;;;;;23.37;63.75;100715.63;4993799;28;20042;-62
2021/07/18 00:12:56;;;;;;;4.45;2.70;;;;;;;23.33;63.74;100707.09;4993583;28;20380;-62
2021/07/18 00:15:23;;;;;;;5.88;2.90;;;;;;;23.32;63.83;100705.44;4993161;28;20054;-62
2021/07/18 00:17:49;;;;;;;4.90;3.17;;;;;;;23.28;64.10;100706.78;4993607;28;20043;-62
2021/07/18 00:20:16;;;;;;;4.30;3.10;;;;;;;23.25;64.27;100697.25;4993563;28;20125;-62
2021/07/18 00:22:43;;;;;;;5.07;3.30;;;;;;;23.23;64.65;100701.94;4993476;28;20046;-62
2021/07/18 00:25:11;;;;;;;4.78;3.22;;;;;;;23.22;64.77;100708.28;4993512;28;20058;-62
2021/07/18 00:27:38;;;;;;;6.75;3.75;;;;;;;23.21;64.97;100717.34;4993271;28;20459;-62
2021/07/18 00:30:07;;;;;;;9.43;4.70;;;;;;;23.18;65.15;100715.00;4993589;28;20054;-62
2021/07/18 00:32:33;;;;;;;6.43;4.32;;;;;;;23.19;65.24;100716.69;4993217;28;20093;-62
2021/07/18 00:35:00;;;;;;;7.68;4.57;;;;;;;23.14;65.60;100705.63;4993353;28;20483;-62
2021/07/18 00:37:27;;;;;;;9.40;4.95;;;;;;;23.11;65.71;100701.44;4993380;28;20046;-62
2021/07/18 00:39:56;;;;;;;7.55;4.60;;;;;;;23.10;65.85;100709.66;4993140;28;20108;-62
2021/07/18 00:42:22;;;;;;;6.45;3.85;;;;;;;23.07;65.89;100713.50;4993237;28;20047;-62
2021/07/18 00:44:49;;;;;;;5.65;3.75;;;;;;;23.03;66.29;100705.97;4993068;28;20100;-62
2021/07/18 00:47:16;;;;;;;4.93;3.47;;;;;;;23.03;66.11;100692.59;4992982;28;20549;-62
2021/07/18 00:49:43;;;;;;;8.85;4.20;;;;;;;23.00;66.21;100688.41;4993080;28;20462;-62
2021/07/18 00:52:09;;;;;;;4.32;3.17;;;;;;;22.98;65.95;100683.22;4993146;28;20465;-62
2021/07/18 00:54:36;;;;;;;6.80;3.88;;;;;;;22.95;65.85;100683.56;4992890;28;20499;-62
2021/07/18 00:57:05;;;;;;;7.35;4.03;;;;;;;22.95;65.74;100670.19;4993012;28;20073;-62
2021/07/18 00:59:32;;;;;;;5.05;3.70;;;;;;;22.91;65.63;100665.34;4992989;28;20054;-62
2021/07/18 01:01:59;;;;;;;5.70;3.92;;;;;;;22.80;65.86;100670.06;4993058;28;20054;-62
2021/07/18 01:04:27;;;;;;;6.50;3.80;;;;;;;22.77;65.55;100667.69;4992902;28;20076;-62
2021/07/18 01:06:54;;;;;;;9.00;3.92;;;;;;;22.76;65.48;100663.34;4992677;28;20050;-62
2021/07/18 01:09:21;;;;;;;6.97;3.88;;;;;;;22.76;65.76;100671.38;4992847;28;20235;-62
2021/07/18 01:11:48;;;;;;;6.00;4.22;;;;;;;22.63;66.05;100666.53;4992714;28;20051;-62
2021/07/18 01:14:15;;;;;;;8.20;3.90;;;;;;;22.58;66.52;100670.75;4993027;28;20190;-62
2021/07/18 01:16:41;;;;;;;6.20;3.78;;;;;;;22.55;66.44;100673.72;4992473;28;20066;-62
2021/07/18 01:19:09;;;;;;;5.80;3.90;;;;;;;22.65;66.42;100680.59;4992971;28;20447;-62
2021/07/18 01:21:38;;;;;;;8.98;3.90;;;;;;;22.73;66.54;100686.91;4992641;28;20100;-62
2021/07/18 01:24:13;;;;;;;6.43;4.18;;;;;;;22.75;66.58;100688.44;4992751;28;20046;-62
2021/07/18 01:26:40;;;;;;;5.85;4.05;;;;;;;22.79;66.42;100683.56;4992562;28;20550;-62
2021/07/18 01:29:06;;;;;;;5.68;3.75;;;;;;;22.80;66.14;100683.44;4996210;28;20105;-64
2021/07/18 01:31:33;;;;;;;9.55;4.15;;;;;;;22.83;66.34;100679.59;4996731;28;20050;-62
2021/07/18 01:34:00;;;;;;;5.15;3.78;;;;;;;22.82;66.48;100669.88;4996733;28;20050;-62
2021/07/18 01:36:26;;;;;;;7.25;3.97;;;;;;;22.83;66.37;100674.22;4996693;28;20050;-62
2021/07/18 01:38:53;;;;;;;7.25;3.92;;;;;;;22.82;66.57;100672.56;4996439;28;20047;-62
2021/07/18 01:41:19;;;;;;;5.63;4.00;;;;;;;22.82;66.53;100684.06;4996568;28;20074;-62
2021/07/18 01:43:47;;;;;;;8.05;4.10;;;;;;;22.80;66.84;100683.44;4996405;28;20050;-62
2021/07/18 01:46:13;;;;;;;5.00;4.30;;;;;;;22.81;66.60;100689.59;4996361;28;20050;-62
2021/07/18 01:48:41;;;;;;;7.32;4.38;;;;;;;22.75;67.19;100682.25;4996210;28;20068;-62
2021/07/18 01:51:08;;;;;;;7.53;4.45;;;;;;;22.77;67.24;100688.28;4996338;28;20042;-62
2021/07/18 01:53:34;;;;;;;5.45;3.70;;;;;;;22.79;67.38;100683.56;4996351;28;20050;-62
2021/07/18 01:56:01;;;;;;;7.40;3.90;;;;;;;22.78;67.26;100685.44;4996366;28;20415;-62
2021/07/18 01:58:29;;;;;;;7.63;3.60;;;;;;;22.78;67.33;100690.78;4996177;28;20105;-62
2021/07/18 02:00:57;;;;;;;6.90;4.47;;;;;;;22.79;66.97;100681.75;4996018;28;20109;-62
2021/07/18 02:03:24;;;;;;;6.85;4.32;;;;;;;22.77;67.31;100685.59;4996213;28;20057;-62
2021/07/18 02:05:51;;;;;;;6.20;4.00;;;;;;;22.77;67.24;100688.28;4995953;28;20121;-62
2021/07/18 02:08:19;;;;;;;6.97;3.88;;;;;;;22.76;67.46;100690.09;4996013;28;20101;-62
2021/07/18 02:10:46;;;;;;;7.90;4.13;;;;;;;22.74;67.55;100680.56;4995828;28;20042;-62
2021/07/18 02:13:17;;;;;;;7.03;4.43;;;;;;;22.73;67.26;100686.91;4995880;28;20396;-62
2021/07/18 02:15:45;;;;;;;8.27;4.28;;;;;;;22.72;67.76;100691.44;4995707;28;20062;-62
2021/07/18 02:18:12;;;;;;;6.13;4.13;;;;;;;22.71;67.49;100694.31;4995912;28;20108;-62
2021/07/18 02:20:39;;;;;;;4.90;4.10;;;;;;;22.70;67.62;100695.31;4995735;28;20050;-62
2021/07/18 02:23:08;;;;;;;5.03;4.43;;;;;;;22.67;67.74;100685.78;4995710;28;20056;-62
2021/07/18 02:25:35;;;;;;;5.22;4.45;;;;;;;22.64;67.69;100686.94;4995654;28;20050;-62
2021/07/18 02:28:02;;;;;;;6.65;4.20;;;;;;;22.64;67.53;100681.59;4995581;28;20082;-62
2021/07/18 02:30:29;;;;;;;7.35;4.03;;;;;;;22.60;67.71;100674.06;4995628;28;20054;-62
2021/07/18 02:32:56;;;;;;;5.07;4.18;;;;;;;22.60;68.01;100676.72;4995477;28;20081;-62
2021/07/18 02:35:23;;;;;;;5.03;4.40;;;;;;;22.60;68.11;100685.63;4995511;28;20380;-62
2021/07/18 02:37:50;;;;;;;6.68;4.10;;;;;;;22.59;67.68;100683.94;4995346;28;20615;-62
2021/07/18 02:40:18;;;;;;;5.97;4.47;;;;;;;22.59;68.02;100689.28;4995262;28;20046;-62
2021/07/18 02:42:46;;;;;;;6.32;4.32;;;;;;;22.59;67.42;100689.28;4995294;28;20085;-62
2021/07/18 02:45:15;;;;;;;7.93;4.50;;;;;;;22.61;67.47;100699.81;4995210;28;20557;-62
2021/07/18 02:47:42;;;;;;;8.25;4.68;;;;;;;22.62;67.07;100690.78;4995219;28;20046;-62
2021/07/18 02:50:12;;;;;;;9.45;4.53;;;;;;;22.62;67.17;100694.28;4995201;28;20054;-62
2021/07/18 02:52:41;;;;;;;5.95;4.40;;;;;;;22.63;66.92;100695.97;4995119;28;20443;-62
2021/07/18 02:55:08;;;;;;;6.07;4.38;;;;;;;22.63;66.86;100693.28;4995137;28;20073;-62
2021/07/18 02:57:35;;;;;;;5.97;4.25;;;;;;;22.62;66.84;100693.47;4994949;28;20046;-62
2021/07/18 03:00:13;;;;;;;9.82;4.60;;;;;;;22.57;66.83;100687.78;4995147;28;20046;-62
2021/07/18 03:02:44;;;;;;;5.32;4.22;;;;;;;22.59;66.91;100697.31;4991469;28;20530;-62
2021/07/18 03:05:12;;;;;;;5.78;4.60;;;;;;;22.58;66.82;100684.94;4991397;28;20093;-63
2021/07/18 03:07:43;;;;;;;5.20;4.13;;;;;;;22.58;66.85;100682.25;4991179;28;20442;-63
2021/07/18 03:10:11;;;;;;;5.82;4.38;;;;;;;22.57;66.93;100685.09;4991595;28;20054;-63
2021/07/18 03:12:38;;;;;;;5.18;4.20;;;;;;;22.58;67.03;100692.13;4991273;28;20046;-62
2021/07/18 03:15:07;;;;;;;5.20;4.05;;;;;;;22.57;66.92;100687.78;4991051;28;20081;-62
2021/07/18 03:17:34;;;;;;;7.10;4.80;;;;;;;22.56;67.08;100694.13;4991346;28;20108;-62
2021/07/18 03:20:04;;;;;;;5.93;4.65;;;;;;;22.55;67.00;100695.97;4991499;28;20113;-62
2021/07/18 03:22:32;;;;;;;5.50;4.50;;;;;;;22.55;66.69;100697.81;4991478;28;20077;-62
2021/07/18 03:25:00;;;;;;;14.02;5.22;;;;;;;22.52;66.91;100696.28;4990948;28;20049;-62
2021/07/18 03:27:27;;;;;;;5.05;4.00;;;;;;;22.49;67.02;100696.63;4990941;28;20089;-62
2021/07/18 03:29:53;;;;;;;5.80;4.40;;;;;;;22.43;66.82;100689.28;4991198;28;20046;-62
2021/07/18 03:32:20;;;;;;;5.22;4.30;;;;;;;22.43;66.92;100691.94;4991244;28;20046;-64
2021/07/18 03:34:47;;;;;;;7.03;4.25;;;;;;;22.48;66.53;100692.28;4991069;28;20046;-62
2021/07/18 03:37:14;;;;;;;6.38;4.03;;;;;;;22.50;66.84;100690.28;4990643;28;20046;-62
2021/07/18 03:39:41;;;;;;;4.57;3.80;;;;;;;22.50;66.99;100690.28;4990602;28;20042;-63
2021/07/18 03:42:07;;;;;;;4.68;3.83;;;;;;;22.52;66.53;100695.47;4990850;28;20486;-63
2021/07/18 03:44:34;;;;;;;5.22;3.75;;;;;;;22.54;66.58;100690.78;4991181;28;20054;-62
2021/07/18 03:47:01;;;;;;;7.40;3.80;;;;;;;22.54;66.76;100698.78;4990806;28;20499;-62
2021/07/18 03:49:27;;;;;;;5.70;3.85;;;;;;;22.51;66.75;100697.28;4990874;28;20530;-62
2021/07/18 03:51:54;;;;;;;6.28;4.13;;;;;;;22.50;66.73;100693.78;4989973;28;20499;-62
2021/07/18 03:54:21;;;;;;;6.90;3.70;;;;;;;22.48;67.20;100689.63;4990408;28;20050;-64
2021/07/18 03:56:48;;;;;;;4.53;3.63;;;;;;;22.50;67.26;100693.78;4990408;28;20054;-62
2021/07/18 03:59:15;;;;;;;5.18;3.35;;;;;;;22.50;67.10;100692.97;4990921;28;20097;-62
2021/07/18 04:01:41;;;;;;;6.05;3.78;;;;;;;22.53;67.20;100691.81;4990401;28;20112;-62
2021/07/18 04:04:08;;;;;;;5.70;3.10;;;;;;;22.51;67.39;100686.59;4990345;28;20060;-62
2021/07/18 04:06:35;;;;;;;5.07;3.28;;;;;;;22.50;67.17;100693.78;4990105;28;20124;-62
2021/07/18 04:09:01;;;;;;;6.57;3.10;;;;;;;22.53;67.08;100695.31;4990567;28;20042;-62
2021/07/18 04:11:28;;;;;;;5.25;3.13;;;;;;;22.55;66.76;100693.31;4990395;28;20051;-64
2021/07/18 04:13:55;;;;;;;4.97;3.30;;;;;;;22.56;66.78;100692.28;4990386;28;20050;-62
2021/07/18 04:16:22;;;;;;;3.85;2.85;;;;;;;22.52;66.85;100696.28;4990292;28;20244;-62
2021/07/18 04:18:51;;;;;;;5.97;3.20;;;;;;;22.47;66.76;100699.50;4990193;28;20567;-63
2021/07/18 04:21:19;;;;;;;4.63;3.17;;;;;;;22.52;66.78;100700.81;4990061;28;20050;-62
2021/07/18 04:23:46;;;;;;;5.43;3.40;;;;;;;22.59;66.72;100701.81;4989944;28;20388;-62
2021/07/18 04:26:13;;;;;;;5.18;3.50;;;;;;;22.60;66.65;100703.47;4989789;28;20128;-62
2021/07/18 04:28:40;;;;;;;4.13;3.15;;;;;;;22.61;66.49;100705.16;4989976;28;20047;-64
2021/07/18 04:31:06;;;;;;;5.28;3.10;;;;;;;22.61;66.84;100710.50;4990255;28;20042;-62
2021/07/18 04:33:33;;;;;;;6.10;3.33;;;;;;;22.59;66.70;100715.19;4990127;28;20105;-62
2021/07/18 04:36:02;;;;;;;6.15;3.20;;;;;;;22.58;67.06;100705.50;4990085;28;20120;-62
2021/07/18 04:38:29;;;;;;;4.40;3.17;;;;;;;22.59;66.90;100709.81;4990059;28;20050;-62
2021/07/18 04:40:55;;;;;;;4.55;3.20;;;;;;;22.61;67.06;100702.47;4989625;28;20124;-62
2021/07/18 04:43:22;;;;;;;7.22;3.28;;;;;;;22.60;67.25;100701.66;4989763;28;20054;-62
2021/07/18 04:45:48;;;;;;;4.55;3.72;;;;;;;22.62;67.00;100696.13;4989490;28;20108;-62
2021/07/18 04:48:15;;;;;;;8.02;3.40;;;;;;;22.62;67.44;100699.63;4989443;28;20100;-63
2021/07/18 04:50:41;;;;;;;4.45;3.60;;;;;;;22.63;66.97;100701.31;4989414;28;20046;-62
2021/07/18 04:53:10;;;;;;;8.55;3.60;;;;;;;22.61;67.15;100702.47;4989509;28;20069;-62
2021/07/18 04:55:37;;;;;;;6.35;3.60;;;;;;;22.64;67.23;100694.16;4989734;28;20054;-62
2021/07/18 04:58:04;;;;;;;4.65;3.50;;;;;;;22.65;67.24;100707.34;4989615;28;20121;-62
2021/07/18 05:00:32;;;;;;;6.78;3.17;;;;;;;22.69;67.38;100717.69;4989835;28;20050;-62
2021/07/18 05:02:59;;;;;;;4.90;3.47;;;;;;;22.69;67.33;100715.03;4989550;28;20054;-63
2021/07/18 05:05:26;;;;;;;5.88;3.65;;;;;;;22.64;67.57;100721.72;4989588;28;20418;-62
2021/07/18 05:07:57;;;;;;;6.68;3.80;;;;;;;22.53;67.60;100716.69;4989357;28;20061;-62
2021/07/18 05:10:25;;;;;;;5.30;3.65;;;;;;;22.56;67.37;100721.69;4989525;28;20194;-62
2021/07/18 05:12:54;;;;;;;6.18;3.67;;;;;;;22.59;67.03;100710.69;4989308;28;20058;-62
2021/07/18 05:15:22;;;;;;;4.25;2.95;;;;;;;22.66;66.69;100711.69;4989030;28;20058;-62
2021/07/18 05:17:49;;;;;;;5.30;3.42;;;;;;;22.72;66.41;100717.38;4989058;28;20061;-63
2021/07/18 05:20:18;;;;;;;7.93;3.58;;;;;;;22.80;65.67;100712.00;4989236;28;20454;-63
2021/07/18 05:22:45;;;;;;;8.07;3.35;;;;;;;22.87;65.48;100712.16;4989200;28;20050;-62
2021/07/18 05:25:12;;;;;;;4.65;2.83;;;;;;;22.91;65.47;100719.69;4989254;28;20051;-62
2021/07/18 05:27:39;;;;;;;7.15;3.42;;;;;;;22.93;65.38;100716.84;4989159;28;20058;-62
2021/07/18 05:30:08;;;;;;;5.80;2.67;;;;;;;22.87;65.27;100718.38;4989355;28;20104;-62
2021/07/18 05:32:35;;;;;;;5.88;3.35;;;;;;;22.86;65.00;100723.91;4989015;28;20126;-63
2021/07/18 05:35:04;;;;;;;4.30;3.00;;;;;;;22.80;65.13;100712.88;4989309;28;20050;-63
2021/07/18 05:37:30;;;;;;;7.05;2.70;;;;;;;22.86;64.83;100724.72;4989142;28;20082;-62
2021/07/18 05:39:57;;;;;;;5.38;2.92;;;;;;;22.95;64.83;100723.69;4989201;28;20046;-62
2021/07/18 05:42:23;;;;;;;4.35;3.00;;;;;;;22.91;64.69;100727.72;4989243;28;20046;-62
2021/07/18 05:44:50;;;;;;;8.02;3.00;;;;;;;22.84;64.89;100726.72;4989124;28;20112;-62
2021/07/18 05:47:17;;;;;;;5.00;2.70;;;;;;;22.85;64.75;100738.28;4989363;28;20109;-62
2021/07/18 05:49:43;;;;;;;5.93;3.50;;;;;;;22.98;64.13;100738.59;4988815;28;20503;-63
2021/07/18 05:52:10;;;;;;;4.70;2.80;;;;;;;23.14;63.44;100727.84;4989327;28;20455;-63
2021/07/18 05:54:38;;;;;;;3.05;2.42;;;;;;;23.25;62.95;100718.69;4989307;28;20058;-63
2021/07/18 05:57:05;;;;;;;4.03;2.20;;;;;;;23.33;62.67;100712.47;4988892;28;20404;-63
2021/07/18 05:59:32;;;;;;;5.25;2.83;;;;;;;23.38;62.39;100718.13;4989010;28;20263;-62
2021/07/18 06:02:01;;;;;;;7.45;2.78;;;;;;;23.58;61.74;100715.03;4988887;28;20054;-62
2021/07/18 06:04:29;;;;;;;5.32;2.40;;;;;;;23.69;61.39;100711.97;4988873;28;20065;-63
2021/07/18 06:06:56;;;;;;;4.05;2.20;;;;;;;23.86;60.89;100718.13;4988696;28;20047;-62
2021/07/18 06:09:22;;;;;;;2.92;2.47;;;;;;;24.04;60.33;100719.75;4989157;28;20046;-63
2021/07/18 06:11:49;;;;;;;3.85;2.22;;;;;;;24.22;59.69;100717.59;4988784;28;20483;-63
2021/07/18 06:14:16;;;;;;;2.75;1.92;;;;;;;24.41;59.13;100707.44;4990709;28;20046;-62
2021/07/18 06:16:42;;;;;;;2.42;1.95;;;;;;;24.58;58.61;100717.03;4992070;28;20509;-65
2021/07/18 06:19:09;;;;;;;5.00;2.00;;;;;;;24.68;58.62;100721.34;4992406;28;20484;-63
2021/07/18 06:21:35;;;;;;;2.70;1.80;;;;;;;24.61;58.70;100726.56;4992330;28;20113;-63
2021/07/18 06:24:02;;;;;;;1.98;1.48;;;;;;;24.53;59.03;100722.09;4992405;28;20043;-63
2021/07/18 06:26:32;;;;;;;4.35;1.58;;;;;;;24.51;58.80;100721.44;4992061;28;20102;-62
2021/07/18 06:29:00;;;;;;;2.15;1.65;;;;;;;24.51;58.66;100718.75;4991988;28;20455;-62
2021/07/18 06:31:27;;;;;;;2.38;1.40;;;;;;;24.52;58.56;100720.44;4992286;28;20137;-62
2021/07/18 06:33:54;;;;;;;2.38;1.60;;;;;;;24.56;58.02;100723.59;4992248;28;20419;-62
2021/07/18 06:36:21;;;;;;;3.97;1.75;;;;;;;24.62;57.83;100722.88;4990968;28;20466;-62
2021/07/18 06:38:47;;;;;;;3.17;2.15;;;;;;;24.66;57.64;100726.03;4992034;28;20047;-63
2021/07/18 06:41:14;;;;;;;3.95;2.10;;;;;;;24.67;57.15;100733.94;4991917;28;20046;-63
2021/07/18 06:43:41;;;;;;;4.07;2.40;;;;;;;24.66;57.64;100736.78;4991884;28;20042;-63
2021/07/18 06:46:27;;;;;;;2.92;2.55;;;;;;;24.68;57.38;100732.06;4991951;28;20046;-63
2021/07/18 06:48:57;;;;;;;4.00;2.20;;;;;;;24.73;57.11;100737.72;4991872;28;20141;-62
2021/07/18 06:51:24;;;;;;;4.03;2.60;;;;;;;24.78;57.04;100738.88;4991695;28;20050;-62
2021/07/18 06:53:51;;;;;;;4.55;2.40;;;;;;;24.83;56.88;100743.66;4991576;28;20073;-62
2021/07/18 06:56:33;;;;;;;3.75;2.50;;;;;;;24.88;56.82;100748.50;4991657;28;20053;-62
2021/07/18 06:59:00;;;;;;;3.97;2.80;;;;;;;24.93;56.78;100754.16;4991514;28;20116;-62
2021/07/18 07:01:27;;;;;;;4.03;2.38;;;;;;;24.98;56.79;100753.63;4991517;28;20074;-62
2021/07/18 07:03:54;;;;;;;4.43;2.72;;;;;;;25.00;56.51;100762.31;4991496;28;20141;-62
2021/07/18 07:06:21;;;;;;;3.58;2.85;;;;;;;25.01;56.42;100755.94;4991713;28;20058;-62
2021/07/18 07:08:48;;;;;;;4.72;3.03;;;;;;;25.02;56.72;100760.31;4991371;28;20046;-62
2021/07/18 07:11:16;;;;;;;7.68;3.33;;;;;;;25.05;56.76;100749.19;4991320;28;20042;-63
2021/07/18 07:13:42;;;;;;;5.35;2.80;;;;;;;25.09;56.89;100745.97;4991220;28;20081;-62
2021/07/18 07:16:09;;;;;;;4.85;3.15;;;;;;;25.16;57.00;100746.06;4991094;28;20054;-63
2021/07/18 07:18:36;;;;;;;5.80;3.30;;;;;;;25.23;56.62;100747.00;4991420;28;20070;-63
2021/07/18 07:21:03;;;;;;;4.57;2.97;;;;;;;25.33;56.26;100745.88;4991363;28;20388;-62
2021/07/18 07:23:29;;;;;;;4.65;2.70;;;;;;;25.39;55.84;100747.88;4991534;28;20054;-62
2021/07/18 07:25:56;;;;;;;5.25;2.42;;;;;;;25.44;55.16;100745.47;4989838;28;20046;-62
2021/07/18 07:28:23;;;;;;;3.45;1.92;;;;;;;25.47;54.79;100749.63;4990963;28;20076;-63
2021/07/18 07:30:52;;;;;;;3.33;2.10;;;;;;;25.51;54.46;100750.91;4990919;28;20047;-62
2021/07/18 07:33:18;;;;;;;3.58;2.22;;;;;;;25.54;54.37;100756.75;4990942;28;20451;-62
2021/07/18 07:35:50;;;;;;;2.75;2.08;;;;;;;25.55;54.63;100747.69;4990931;28;20046;-62
2021/07/18 07:38:17;;;;;;;5.20;2.28;;;;;;;25.57;54.88;100748.34;4990975;28;20047;-63
2021/07/18 07:40:45;;;;;;;3.53;1.80;;;;;;;25.58;55.01;100752.69;4990679;28;20046;-63
2021/07/18 07:43:13;;;;;;;4.30;2.45;;;;;;;25.62;54.93;100755.00;4990803;28;20462;-63
2021/07/18 07:45:39;;;;;;;4.10;2.10;;;;;;;25.69;54.71;100746.00;4990515;28;20049;-63
2021/07/18 07:48:06;;;;;;;7.85;2.33;;;;;;;25.76;54.55;100751.47;4991041;28;20410;-62
2021/07/18 07:50:40;;;;;;;4.18;1.77;;;;;;;25.86;54.23;100756.56;4990788;28;20054;-62
2021/07/18 07:53:07;;;;;;;2.22;1.65;;;;;;;25.99;53.88;100754.03;4990735;28;20050;-63
2021/07/18 07:55:34;;;;;;;2.22;1.55;;;;;;;26.04;53.51;100756.16;4990482;28;20050;-65
2021/07/18 07:58:01;;;;;;;3.05;1.30;;;;;;;26.11;53.55;100759.78;4990258;28;20051;-63
2021/07/18 08:00:28;;;;;;;5.25;1.60;;;;;;;26.16;53.39;100748.47;4990480;28;20078;-62
2021/07/18 08:02:54;;;;;;;2.10;1.33;;;;;;;26.26;53.09;100740.94;4990478;28;20100;-62
2021/07/18 08:05:21;;;;;;;2.08;1.20;;;;;;;26.34;53.00;100743.47;4990325;28;20137;-62
2021/07/18 08:07:48;;;;;;;1.85;1.27;;;;;;;26.47;52.83;100752.72;4990078;28;20100;-63
2021/07/18 08:10:20;;;;;;;1.85;1.40;;;;;;;26.50;52.83;100744.25;4990272;28;20046;-63
2021/07/18 08:12:48;;;;;;;2.45;1.30;;;;;;;26.63;52.78;100744.38;4990290;28;20046;-63
2021/07/18 08:15:16;;;;;;;2.72;1.55;;;;;;;27.02;52.24;100750.31;4989948;28;20062;-63
2021/07/18 08:17:43;;;;;;;2.45;1.48;;;;;;;27.66;50.53;100733.13;4990143;28;20054;-62
2021/07/18 08:20:13;;;;;;;1.58;1.30;;;;;;;28.34;48.99;100736.88;4990193;28;20073;-63
2021/07/18 08:22:40;;;;;;;3.17;1.40;;;;;;;28.50;48.95;100733.78;4989900;28;20186;-62
2021/07/18 08:25:07;;;;;;;2.28;1.13;;;;;;;28.59;48.63;100730.91;4990562;28;20462;-62
2021/07/18 08:27:35;;;;;;;2.20;1.27;;;;;;;28.25;49.40;100728.19;4990306;28;20085;-63
2021/07/18 08:30:07;;;;;;;2.83;1.20;;;;;;;28.06;49.43;100718.16;4989962;28;20050;-63
2021/07/18 08:32:34;;;;;;;3.08;1.15;;;;;;;27.93;49.95;100727.00;4989989;28;20108;-63
2021/07/18 08:35:01;;;;;;;3.65;1.40;;;;;;;28.27;49.16;100727.97;4989754;28;20050;-63
2021/07/18 08:37:28;;;;;;;2.72;1.08;;;;;;;28.17;49.82;100729.16;4989307;28;20097;-63
2021/07/18 08:39:55;;;;;;;4.13;1.50;;;;;;;28.50;48.79;100722.16;4989553;28;20042;-64
2021/07/18 08:42:23;;;;;;;2.90;1.42;;;;;;;28.64;48.48;100731.13;4989916;28;20054;-62
2021/07/18 08:44:50;;;;;;;3.13;1.90;;;;;;;28.34;49.43;100728.78;4989556;28;20053;-63
2021/07/18 08:47:17;;;;;;;2.63;1.40;;;;;;;28.08;50.32;100732.28;4989443;28;20093;-63
2021/07/18 08:49:46;;;;;;;4.70;1.90;;;;;;;27.89;50.44;100736.53;4989705;28;20052;-63
2021/07/18 08:52:13;;;;;;;2.22;1.33;;;;;;;27.75;50.97;100733.78;4989846;28;20054;-63
2021/07/18 08:54:40;;;;;;;3.25;1.63;;;;;;;27.62;51.28;100741.81;4989507;28;20046;-62
2021/07/18 08:57:08;;;;;;;5.20;1.98;;;;;;;27.52;50.87;100748.41;4989607;28;20125;-62
2021/07/18 08:59:35;;;;;;;3.70;1.77;;;;;;;27.42;51.44;100753.31;4989660;28;20046;-63
2021/07/18 09:02:02;;;;;;;1.98;1.40;;;;;;;27.33;51.51;100751.78;4989720;28;20054;-62
2021/07/18 09:04:30;;;;;;;4.40;1.88;;;;;;;27.25;51.70;100749.22;4989600;28;20054;-63
2021/07/18 09:07:04;;;;;;;5.65;1.83;;;;;;;27.21;51.86;100746.09;4989081;28;20557;-63
2021/07/18 09:09:32;;;;;;;3.33;1.95;;;;;;;27.17;51.59;100739.44;4989398;28;20502;-63
2021/07/18 09:12:04;;;;;;;3.38;1.75;;;;;;;27.13;51.26;100738.19;4989250;28;20054;-63
2021/07/18 09:14:33;;;;;;;4.50;1.65;;;;;;;27.16;50.67;100743.16;4989177;28;20046;-63
2021/07/18 09:17:00;;;;;;;2.63;1.60;;;;;;;27.19;50.68;100746.28;4988994;28;20054;-62
2021/07/18 09:19:33;;;;;;;5.63;1.80;;;;;;;27.28;50.89;100752.38;4989318;28;20046;-62
2021/07/18 09:22:03;;;;;;;4.78;1.90;;;;;;;27.42;51.22;100745.22;4989314;28;20464;-62
2021/07/18 09:24:41;;;;;;;3.90;2.13;;;;;;;27.54;50.65;100746.34;4989367;28;20077;-63
2021/07/18 09:27:11;;;;;;;3.22;1.92;;;;;;;27.73;49.75;100741.25;4989689;28;20054;-62
2021/07/18 09:30:04;;;;;;;4.88;2.00;;;;;;;27.99;49.15;100734.28;4989360;28;20487;-62
2021/07/18 09:32:34;;;;;;;3.53;1.80;;;;;;;28.18;48.51;100736.22;4989177;28;20050;-62
2021/07/18 09:35:13;;;;;;;5.70;1.88;;;;;;;28.40;48.02;100740.66;4989089;28;20054;-62
2021/07/18 09:37:49;;;;;;;4.00;1.88;;;;;;;28.50;47.75;100738.38;4989225;28;20051;-63
2021/07/18 09:40:19;;;;;;;2.80;1.73;;;;;;;28.57;47.32;100731.13;4989025;28;20070;-62
2021/07/18 09:42:50;;;;;;;4.43;2.20;;;;;;;28.61;47.09;100723.44;4989266;28;20055;-62
2021/07/18 09:45:30;;;;;;;9.10;2.45;;;;;;;28.60;47.32;100710.97;4989414;28;20042;-62
2021/07/18 09:48:04;;;;;;;6.65;2.30;;;;;;;28.54;47.75;100712.63;4988847;28;20054;-62
2021/07/18 09:50:31;;;;;;;5.28;2.67;;;;;;;28.52;47.70;100718.22;4993047;28;20073;-62
2021/07/18 09:53:26;;;;;;;3.80;1.77;;;;;;;28.59;47.98;100715.53;4992757;28;20073;-62
2021/07/18 09:56:08;;;;;;;;;;;;;;;28.67;47.59;100715.38;4988710;28;20046;-63
2021/07/18 09:58:37;;;;;;;4.28;2.17;;;;;;;28.78;47.52;100715.78;4992770;28;19984;-62
2021/07/18 10:01:09;;;;;;;6.55;2.53;;;;;;;28.76;47.74;100712.44;4992768;28;20046;-62
2021/07/18 10:03:44;;;;;;;4.43;2.08;;;;;;;29.07;47.23;100709.09;4992832;28;20096;-62
2021/07/18 10:06:14;;;;;;;5.55;1.70;;;;;;;30.25;43.55;100695.53;4992748;28;20450;-62
2021/07/18 10:08:45;;;;;;;3.10;1.50;;;;;;;30.91;42.65;100690.66;4992850;28;20050;-62
2021/07/18 10:11:17;;;;;;;2.92;1.40;;;;;;;30.40;44.05;100696.06;4992547;28;20108;-63
2021/07/18 10:13:45;;;;;;;3.20;1.50;;;;;;;30.89;42.79;100693.59;4992715;28;20105;-64
2021/07/18 10:16:13;;;;;;;2.00;1.35;;;;;;;31.56;41.37;100694.75;4992450;28;20125;-63
2021/07/18 10:18:42;;;;;;;3.78;1.40;;;;;;;31.98;40.83;100680.44;4992231;28;20058;-63
2021/07/18 10:21:10;;;;;;;5.10;1.40;;;;;;;32.19;40.58;100684.56;4992496;28;20139;-63
2021/07/18 10:23:40;;;;;;;3.22;1.13;;;;;;;32.32;39.66;100680.81;4992783;28;20058;-63
2021/07/18 10:26:19;;;;;;;2.00;1.50;;;;;;;32.40;39.34;100681.28;4992124;28;20138;-63
2021/07/18 10:28:47;;;;;;;3.00;1.20;;;;;;;32.63;37.94;100676.09;4992236;28;20124;-63
2021/07/18 10:31:25;;;;;;;2.35;1.30;;;;;;;32.79;37.56;100688.19;4992180;28;20054;-64
2021/07/18 10:33:54;;;;;;;1.77;1.10;;;;;;;33.03;36.74;100680.84;4992094;28;20086;-63
2021/07/18 10:36:23;;;;;;;1.15;0.90;;;;;;;33.15;35.51;100676.19;4992388;28;20054;-63
2021/07/18 10:38:50;;;;;;;1.77;1.20;;;;;;;33.33;34.22;100674.41;4991985;28;20050;-64
2021/07/18 10:41:40;;;;;;;1.70;1.20;;;;;;;33.50;32.99;100671.78;4991913;28;20072;-63
2021/07/18 10:44:12;;;;;;;1.10;0.90;;;;;;;33.51;32.04;100674.25;4992038;28;20101;-64
2021/07/18 10:46:38;;;;;;;1.55;0.82;;;;;;;33.61;31.38;100675.50;4991977;28;20050;-63
2021/07/18 10:49:05;;;;;;;1.17;0.90;;;;;;;33.66;30.74;100679.16;4991974;28;20085;-63
2021/07/18 10:51:36;;;;;;;1.00;0.85;;;;;;;33.87;30.16;100668.69;4991862;28;20077;-64
2021/07/18 10:54:20;;;;;;;2.33;1.00;;;;;;;33.96;29.55;100674.56;4991905;28;20411;-63
2021/07/18 10:56:53;;;;;;;1.50;0.93;;;;;;;34.13;28.96;100663.69;4991722;28;20050;-63
2021/07/18 10:59:35;;;;;;;1.63;1.10;;;;;;;34.21;29.00;100667.88;4991106;28;20066;-63
2021/07/18 11:02:09;;;;;;;2.03;1.10;;;;;;;34.26;28.67;100662.53;4991760;28;20093;-64
2021/07/18 11:04:54;;;;;;;1.25;0.70;;;;;;;34.44;28.25;100662.31;4991819;28;20050;-63
2021/07/18 11:07:20;;;;;;;1.02;0.80;;;;;;;34.56;28.03;100658.66;4991917;28;20117;-63
2021/07/18 11:09:51;;;;;;;0.90;0.70;;;;;;;34.64;27.83;100656.34;4991348;28;20042;-64
2021/07/18 11:12:32;;;;;;;1.23;0.85;;;;;;;34.80;27.19;100653.84;4991427;28;20101;-64
2021/07/18 11:15:20;;;;;;;3.33;1.15;;;;;;;34.82;27.41;100646.25;4991107;28;20051;-63
2021/07/18 11:18:08;;;;;;;2.08;1.08;;;;;;;34.88;27.00;100641.69;4991382;28;20112;-63
2021/07/18 11:20:48;;;;;;;1.15;0.90;;;;;;;34.93;27.11;100642.59;4991449;28;20042;-64
2021/07/18 11:23:26;;;;;;;1.13;0.90;;;;;;;35.05;27.17;100644.41;4991219;28;20418;-64
2021/07/18 11:26:02;;;;;;;1.70;1.10;;;;;;;35.14;26.94;100635.50;4991022;28;20046;-63
2021/07/18 11:28:50;;;;;;;1.80;1.00;;;;;;;35.20;26.76;100630.94;4991270;28;20129;-63
2021/07/18 11:31:20;;;;;;;2.33;0.90;;;;;;;35.34;26.66;100627.78;4991123;28;20047;-65